sensor_id;sensor_type;location;lat;lon;timestamp;P1;durP1;ratioP1;P2;durP2;ratioP2
20844;SDS011;10583;49.084;8.646;2024-03-17T00:01:38;3.93;;;3.93;;
20844;SDS011;10583;49.084;8.646;2024-03-17T00:04:06;3.87;;;3.87;;
20844;SDS011;10583;49.084;8.646;2024-03-17T00:06:34;3.67;;;3.67;;
20844;SDS011;10583;49.084;8.646;2024-03-17T00:09:00;3.70;;;3.70;;
20844;SDS011;10583;49.084;8.646;2024-03-17T00:11:31;4.30;;;4.30;;
20844;SDS011;10583;49.084;8.646;2024-03-17T00:13:57;4.30;;;4.30;;
20844;SDS011;10583;49.084;8.646;2024-03-17T00:16:23;3.80;;;3.80;;
20844;SDS011;10583;49.084;8.646;2024-03-17T00:18:49;4.00;;;4.00;;
20844;SDS011;10583;49.084;8.646;2024-03-17T00:21:16;3.70;;;3.70;;
20844;SDS011;10583;49.084;8.646;2024-03-17T00:23:43;4.37;;;4.37;;
20844;SDS011;10583;49.084;8.646;2024-03-17T00:26:09;4.30;;;4.30;;
20844;SDS011;10583;49.084;8.646;2024-03-17T00:28:35;4.00;;;4.00;;
20844;SDS011;10583;49.084;8.646;2024-03-17T00:31:02;4.00;;;4.00;;
20844;SDS011;10583;49.084;8.646;2024-03-17T00:33:28;4.10;;;4.10;;
20844;SDS011;10583;49.084;8.646;2024-03-17T00:35:55;4.40;;;4.40;;
20844;SDS011;10583;49.084;8.646;2024-03-17T00:38:22;4.30;;;4.30;;
20844;SDS011;10583;49.084;8.646;2024-03-17T00:40:49;4.63;;;4.63;;
20844;SDS011;10583;49.084;8.646;2024-03-17T00:43:15;4.20;;;4.20;;
20844;SDS011;10583;49.084;8.646;2024-03-17T00:45:41;3.10;;;3.10;;
20844;SDS011;10583;49.084;8.646;2024-03-17T00:48:08;3.30;;;3.30;;
20844;SDS011;10583;49.084;8.646;2024-03-17T00:50:34;2.90;;;2.90;;
20844;SDS011;10583;49.084;8.646;2024-03-17T00:53:01;3.60;;;3.60;;
20844;SDS011;10583;49.084;8.646;2024-03-17T00:55:28;3.13;;;3.13;;
20844;SDS011;10583;49.084;8.646;2024-03-17T00:57:56;3.30;;;3.30;;
20844;SDS011;10583;49.084;8.646;2024-03-17T01:00:22;3.70;;;3.70;;
20844;SDS011;10583;49.084;8.646;2024-03-17T01:02:48;3.63;;;3.63;;
20844;SDS011;10583;49.084;8.646;2024-03-17T01:05:14;3.07;;;3.07;;
20844;SDS011;10583;49.084;8.646;2024-03-17T01:07:41;4.13;;;4.13;;
20844;SDS011;10583;49.084;8.646;2024-03-17T01:10:07;4.00;;;4.00;;
20844;SDS011;10583;49.084;8.646;2024-03-17T01:12:34;4.07;;;4.07;;
20844;SDS011;10583;49.084;8.646;2024-03-17T01:15:02;4.70;;;4.70;;
20844;SDS011;10583;49.084;8.646;2024-03-17T01:17:30;3.77;;;3.77;;
20844;SDS011;10583;49.084;8.646;2024-03-17T01:19:55;3.80;;;3.80;;
20844;SDS011;10583;49.084;8.646;2024-03-17T01:22:22;3.80;;;3.80;;
20844;SDS011;10583;49.084;8.646;2024-03-17T01:24:48;4.07;;;4.07;;
20844;SDS011;10583;49.084;8.646;2024-03-17T01:27:15;3.97;;;3.97;;
20844;SDS011;10583;49.084;8.646;2024-03-17T01:29:41;3.70;;;3.70;;
20844;SDS011;10583;49.084;8.646;2024-03-17T01:32:09;4.17;;;4.17;;
20844;SDS011;10583;49.084;8.646;2024-03-17T01:34:36;3.83;;;3.83;;
20844;SDS011;10583;49.084;8.646;2024-03-17T01:37:03;3.60;;;3.60;;
20844;SDS011;10583;49.084;8.646;2024-03-17T01:39:29;3.97;;;3.97;;
20844;SDS011;10583;49.084;8.646;2024-03-17T01:41:57;4.43;;;4.43;;
20844;SDS011;10583;49.084;8.646;2024-03-17T01:44:24;4.20;;;4.20;;
20844;SDS011;10583;49.084;8.646;2024-03-17T01:46:52;3.60;;;3.60;;
20844;SDS011;10583;49.084;8.646;2024-03-17T01:49:20;3.80;;;3.80;;
20844;SDS011;10583;49.084;8.646;2024-03-17T01:51:48;4.10;;;4.10;;
20844;SDS011;10583;49.084;8.646;2024-03-17T01:54:15;3.77;;;3.77;;
20844;SDS011;10583;49.084;8.646;2024-03-17T01:56:42;4.17;;;4.17;;
20844;SDS011;10583;49.084;8.646;2024-03-17T01:59:09;3.87;;;3.87;;
20844;SDS011;10583;49.084;8.646;2024-03-17T02:01:36;4.47;;;4.47;;
20844;SDS011;10583;49.084;8.646;2024-03-17T02:04:02;4.10;;;4.10;;
20844;SDS011;10583;49.084;8.646;2024-03-17T02:06:31;4.00;;;4.00;;
20844;SDS011;10583;49.084;8.646;2024-03-17T02:08:56;4.13;;;4.13;;
20844;SDS011;10583;49.084;8.646;2024-03-17T02:11:24;4.90;;;4.90;;
20844;SDS011;10583;49.084;8.646;2024-03-17T02:13:52;4.37;;;4.37;;
20844;SDS011;10583;49.084;8.646;2024-03-17T02:16:19;4.23;;;4.23;;
20844;SDS011;10583;49.084;8.646;2024-03-17T02:18:45;3.67;;;3.67;;
20844;SDS011;10583;49.084;8.646;2024-03-17T02:21:12;3.40;;;3.40;;
20844;SDS011;10583;49.084;8.646;2024-03-17T02:23:41;3.67;;;3.67;;
20844;SDS011;10583;49.084;8.646;2024-03-17T02:26:06;4.73;;;4.73;;
20844;SDS011;10583;49.084;8.646;2024-03-17T02:28:42;5.13;;;5.13;;
20844;SDS011;10583;49.084;8.646;2024-03-17T02:31:10;4.43;;;4.43;;
20844;SDS011;10583;49.084;8.646;2024-03-17T02:33:38;3.87;;;3.87;;
20844;SDS011;10583;49.084;8.646;2024-03-17T02:36:04;4.47;;;4.47;;
20844;SDS011;10583;49.084;8.646;2024-03-17T02:38:33;3.87;;;3.87;;
20844;SDS011;10583;49.084;8.646;2024-03-17T02:41:19;4.13;;;4.13;;
20844;SDS011;10583;49.084;8.646;2024-03-17T02:43:46;4.90;;;4.90;;
20844;SDS011;10583;49.084;8.646;2024-03-17T02:46:13;4.17;;;4.17;;
20844;SDS011;10583;49.084;8.646;2024-03-17T02:48:42;4.37;;;4.37;;
20844;SDS011;10583;49.084;8.646;2024-03-17T02:51:12;4.33;;;4.33;;
20844;SDS011;10583;49.084;8.646;2024-03-17T02:53:40;3.93;;;3.93;;
20844;SDS011;10583;49.084;8.646;2024-03-17T02:56:07;3.60;;;3.60;;
20844;SDS011;10583;49.084;8.646;2024-03-17T02:58:35;4.30;;;4.30;;
20844;SDS011;10583;49.084;8.646;2024-03-17T03:01:03;3.87;;;3.87;;
20844;SDS011;10583;49.084;8.646;2024-03-17T03:03:30;4.20;;;4.20;;
20844;SDS011;10583;49.084;8.646;2024-03-17T03:05:57;3.73;;;3.73;;
20844;SDS011;10583;49.084;8.646;2024-03-17T03:08:26;3.83;;;3.83;;
20844;SDS011;10583;49.084;8.646;2024-03-17T03:10:52;3.57;;;3.57;;
20844;SDS011;10583;49.084;8.646;2024-03-17T03:13:19;3.90;;;3.90;;
20844;SDS011;10583;49.084;8.646;2024-03-17T03:15:48;4.00;;;4.00;;
20844;SDS011;10583;49.084;8.646;2024-03-17T03:18:15;5.50;;;5.50;;
20844;SDS011;10583;49.084;8.646;2024-03-17T03:20:41;4.53;;;4.53;;
20844;SDS011;10583;49.084;8.646;2024-03-17T03:23:08;4.80;;;4.80;;
20844;SDS011;10583;49.084;8.646;2024-03-17T03:25:36;4.83;;;4.83;;
20844;SDS011;10583;49.084;8.646;2024-03-17T03:28:03;5.67;;;5.67;;
20844;SDS011;10583;49.084;8.646;2024-03-17T03:30:30;4.30;;;4.30;;
20844;SDS011;10583;49.084;8.646;2024-03-17T03:33:03;3.87;;;3.87;;
20844;SDS011;10583;49.084;8.646;2024-03-17T03:35:30;3.83;;;3.83;;
20844;SDS011;10583;49.084;8.646;2024-03-17T03:37:57;4.17;;;4.17;;
20844;SDS011;10583;49.084;8.646;2024-03-17T03:40:25;3.37;;;3.37;;
20844;SDS011;10583;49.084;8.646;2024-03-17T03:42:52;3.77;;;3.77;;
20844;SDS011;10583;49.084;8.646;2024-03-17T03:45:19;4.00;;;4.00;;
20844;SDS011;10583;49.084;8.646;2024-03-17T03:47:46;4.60;;;4.60;;
20844;SDS011;10583;49.084;8.646;2024-03-17T03:50:15;4.07;;;4.07;;
20844;SDS011;10583;49.084;8.646;2024-03-17T03:52:45;4.10;;;4.10;;
20844;SDS011;10583;49.084;8.646;2024-03-17T03:55:12;3.80;;;3.80;;
20844;SDS011;10583;49.084;8.646;2024-03-17T03:57:40;3.80;;;3.80;;
20844;SDS011;10583;49.084;8.646;2024-03-17T04:00:07;3.40;;;3.40;;
20844;SDS011;10583;49.084;8.646;2024-03-17T04:02:37;4.20;;;4.20;;
20844;SDS011;10583;49.084;8.646;2024-03-17T04:05:04;4.20;;;4.20;;
20844;SDS011;10583;49.084;8.646;2024-03-17T04:07:33;4.20;;;4.20;;
20844;SDS011;10583;49.084;8.646;2024-03-17T04:10:01;4.33;;;4.33;;
20844;SDS011;10583;49.084;8.646;2024-03-17T04:12:27;4.17;;;4.17;;
20844;SDS011;10583;49.084;8.646;2024-03-17T04:14:56;4.00;;;4.00;;
20844;SDS011;10583;49.084;8.646;2024-03-17T04:17:23;3.97;;;3.97;;
20844;SDS011;10583;49.084;8.646;2024-03-17T04:19:50;3.77;;;3.77;;
20844;SDS011;10583;49.084;8.646;2024-03-17T04:22:17;3.73;;;3.73;;
20844;SDS011;10583;49.084;8.646;2024-03-17T04:24:46;4.33;;;4.33;;
20844;SDS011;10583;49.084;8.646;2024-03-17T04:27:13;4.27;;;4.27;;
20844;SDS011;10583;49.084;8.646;2024-03-17T04:29:40;4.03;;;4.03;;
20844;SDS011;10583;49.084;8.646;2024-03-17T04:32:07;3.83;;;3.83;;
20844;SDS011;10583;49.084;8.646;2024-03-17T04:34:36;4.13;;;4.13;;
20844;SDS011;10583;49.084;8.646;2024-03-17T04:37:03;3.50;;;3.50;;
20844;SDS011;10583;49.084;8.646;2024-03-17T04:39:30;3.70;;;3.70;;
20844;SDS011;10583;49.084;8.646;2024-03-17T04:41:58;4.00;;;4.00;;
20844;SDS011;10583;49.084;8.646;2024-03-17T04:44:25;4.20;;;4.20;;
20844;SDS011;10583;49.084;8.646;2024-03-17T04:46:51;3.90;;;3.90;;
20844;SDS011;10583;49.084;8.646;2024-03-17T04:49:20;3.90;;;3.90;;
20844;SDS011;10583;49.084;8.646;2024-03-17T04:51:47;3.57;;;3.57;;
20844;SDS011;10583;49.084;8.646;2024-03-17T04:54:13;3.80;;;3.80;;
20844;SDS011;10583;49.084;8.646;2024-03-17T04:56:39;4.13;;;4.13;;
20844;SDS011;10583;49.084;8.646;2024-03-17T04:59:07;4.40;;;4.40;;
20844;SDS011;10583;49.084;8.646;2024-03-17T05:01:34;4.30;;;4.30;;
20844;SDS011;10583;49.084;8.646;2024-03-17T05:04:02;4.17;;;4.17;;
20844;SDS011;10583;49.084;8.646;2024-03-17T05:06:29;3.83;;;3.83;;
20844;SDS011;10583;49.084;8.646;2024-03-17T05:08:56;3.87;;;3.87;;
20844;SDS011;10583;49.084;8.646;2024-03-17T05:11:22;4.27;;;4.27;;
20844;SDS011;10583;49.084;8.646;2024-03-17T05:13:50;4.10;;;4.10;;
20844;SDS011;10583;49.084;8.646;2024-03-17T05:16:18;4.93;;;4.93;;
20844;SDS011;10583;49.084;8.646;2024-03-17T05:18:48;4.60;;;4.60;;
20844;SDS011;10583;49.084;8.646;2024-03-17T05:21:15;5.00;;;5.00;;
20844;SDS011;10583;49.084;8.646;2024-03-17T05:23:42;6.20;;;6.20;;
20844;SDS011;10583;49.084;8.646;2024-03-17T05:26:09;6.10;;;6.10;;
20844;SDS011;10583;49.084;8.646;2024-03-17T05:28:35;6.63;;;6.63;;
20844;SDS011;10583;49.084;8.646;2024-03-17T05:31:02;7.27;;;7.27;;
20844;SDS011;10583;49.084;8.646;2024-03-17T05:33:31;6.30;;;6.30;;
20844;SDS011;10583;49.084;8.646;2024-03-17T05:35:58;6.77;;;6.77;;
20844;SDS011;10583;49.084;8.646;2024-03-17T05:38:27;7.23;;;7.23;;
20844;SDS011;10583;49.084;8.646;2024-03-17T05:40:55;6.43;;;6.43;;
20844;SDS011;10583;49.084;8.646;2024-03-17T05:43:22;8.00;;;8.00;;
20844;SDS011;10583;49.084;8.646;2024-03-17T05:45:50;7.83;;;7.83;;
20844;SDS011;10583;49.084;8.646;2024-03-17T05:48:17;7.30;;;7.30;;
20844;SDS011;10583;49.084;8.646;2024-03-17T05:50:45;7.47;;;7.47;;
20844;SDS011;10583;49.084;8.646;2024-03-17T05:53:12;7.63;;;7.63;;
20844;SDS011;10583;49.084;8.646;2024-03-17T05:55:38;8.27;;;8.27;;
20844;SDS011;10583;49.084;8.646;2024-03-17T05:58:08;7.83;;;7.83;;
20844;SDS011;10583;49.084;8.646;2024-03-17T06:00:34;7.23;;;7.23;;
20844;SDS011;10583;49.084;8.646;2024-03-17T06:03:02;6.10;;;6.10;;
20844;SDS011;10583;49.084;8.646;2024-03-17T06:05:31;6.90;;;6.90;;
20844;SDS011;10583;49.084;8.646;2024-03-17T06:08:00;6.20;;;6.20;;
20844;SDS011;10583;49.084;8.646;2024-03-17T06:10:29;6.57;;;6.57;;
20844;SDS011;10583;49.084;8.646;2024-03-17T06:12:56;6.47;;;6.47;;
20844;SDS011;10583;49.084;8.646;2024-03-17T06:15:23;5.70;;;5.70;;
20844;SDS011;10583;49.084;8.646;2024-03-17T06:17:50;7.00;;;7.00;;
20844;SDS011;10583;49.084;8.646;2024-03-17T06:20:18;6.27;;;6.27;;
20844;SDS011;10583;49.084;8.646;2024-03-17T06:22:45;6.53;;;6.53;;
20844;SDS011;10583;49.084;8.646;2024-03-17T06:25:13;5.93;;;5.93;;
20844;SDS011;10583;49.084;8.646;2024-03-17T06:27:40;6.00;;;6.00;;
20844;SDS011;10583;49.084;8.646;2024-03-17T06:30:09;6.47;;;6.47;;
20844;SDS011;10583;49.084;8.646;2024-03-17T06:32:39;6.63;;;6.63;;
20844;SDS011;10583;49.084;8.646;2024-03-17T06:35:06;5.70;;;5.70;;
20844;SDS011;10583;49.084;8.646;2024-03-17T06:37:33;6.50;;;6.50;;
20844;SDS011;10583;49.084;8.646;2024-03-17T06:40:00;7.37;;;7.37;;
20844;SDS011;10583;49.084;8.646;2024-03-17T06:42:29;7.20;;;7.20;;
20844;SDS011;10583;49.084;8.646;2024-03-17T06:44:56;8.30;;;8.30;;
20844;SDS011;10583;49.084;8.646;2024-03-17T06:47:23;8.47;;;8.47;;
20844;SDS011;10583;49.084;8.646;2024-03-17T06:49:50;7.67;;;7.67;;
20844;SDS011;10583;49.084;8.646;2024-03-17T06:52:17;8.50;;;8.50;;
20844;SDS011;10583;49.084;8.646;2024-03-17T06:54:44;8.43;;;8.43;;
20844;SDS011;10583;49.084;8.646;2024-03-17T06:57:14;7.73;;;7.73;;
20844;SDS011;10583;49.084;8.646;2024-03-17T06:59:42;8.97;;;8.97;;
20844;SDS011;10583;49.084;8.646;2024-03-17T07:02:11;8.87;;;8.87;;
20844;SDS011;10583;49.084;8.646;2024-03-17T07:04:40;9.10;;;9.10;;
20844;SDS011;10583;49.084;8.646;2024-03-17T07:07:08;10.17;;;10.17;;
20844;SDS011;10583;49.084;8.646;2024-03-17T07:09:34;10.40;;;10.40;;
20844;SDS011;10583;49.084;8.646;2024-03-17T07:12:01;10.93;;;10.93;;
20844;SDS011;10583;49.084;8.646;2024-03-17T07:14:28;9.90;;;9.90;;
20844;SDS011;10583;49.084;8.646;2024-03-17T07:16:58;10.43;;;10.43;;
20844;SDS011;10583;49.084;8.646;2024-03-17T07:19:24;11.47;;;11.47;;
20844;SDS011;10583;49.084;8.646;2024-03-17T07:21:51;11.97;;;11.97;;
20844;SDS011;10583;49.084;8.646;2024-03-17T07:24:19;10.97;;;10.97;;
20844;SDS011;10583;49.084;8.646;2024-03-17T07:26:47;11.50;;;11.50;;
20844;SDS011;10583;49.084;8.646;2024-03-17T07:29:14;11.00;;;11.00;;
20844;SDS011;10583;49.084;8.646;2024-03-17T07:31:40;12.20;;;12.10;;
20844;SDS011;10583;49.084;8.646;2024-03-17T07:34:08;12.63;;;12.53;;
20844;SDS011;10583;49.084;8.646;2024-03-17T07:36:35;14.83;;;14.73;;
20844;SDS011;10583;49.084;8.646;2024-03-17T07:39:02;14.50;;;14.40;;
20844;SDS011;10583;49.084;8.646;2024-03-17T07:41:29;14.60;;;14.40;;
20844;SDS011;10583;49.084;8.646;2024-03-17T07:43:56;14.20;;;14.10;;
20844;SDS011;10583;49.084;8.646;2024-03-17T07:46:22;12.90;;;12.90;;
20844;SDS011;10583;49.084;8.646;2024-03-17T07:48:49;13.70;;;13.63;;
20844;SDS011;10583;49.084;8.646;2024-03-17T07:51:17;13.70;;;13.70;;
20844;SDS011;10583;49.084;8.646;2024-03-17T07:53:45;13.10;;;13.10;;
20844;SDS011;10583;49.084;8.646;2024-03-17T07:56:13;12.67;;;12.57;;
20844;SDS011;10583;49.084;8.646;2024-03-17T07:58:41;12.30;;;12.30;;
20844;SDS011;10583;49.084;8.646;2024-03-17T08:01:10;12.40;;;12.40;;
20844;SDS011;10583;49.084;8.646;2024-03-17T08:03:38;12.33;;;12.33;;
20844;SDS011;10583;49.084;8.646;2024-03-17T08:06:06;11.23;;;11.23;;
20844;SDS011;10583;49.084;8.646;2024-03-17T08:08:37;11.83;;;11.83;;
20844;SDS011;10583;49.084;8.646;2024-03-17T08:11:04;11.03;;;11.03;;
20844;SDS011;10583;49.084;8.646;2024-03-17T08:13:31;10.80;;;10.80;;
20844;SDS011;10583;49.084;8.646;2024-03-17T08:16:00;10.50;;;10.50;;
20844;SDS011;10583;49.084;8.646;2024-03-17T08:18:28;10.43;;;10.43;;
20844;SDS011;10583;49.084;8.646;2024-03-17T08:20:55;10.30;;;10.30;;
20844;SDS011;10583;49.084;8.646;2024-03-17T08:23:22;9.93;;;9.93;;
20844;SDS011;10583;49.084;8.646;2024-03-17T08:25:53;10.03;;;10.03;;
20844;SDS011;10583;49.084;8.646;2024-03-17T08:28:23;10.80;;;10.80;;
20844;SDS011;10583;49.084;8.646;2024-03-17T08:30:51;10.43;;;10.43;;
20844;SDS011;10583;49.084;8.646;2024-03-17T08:33:19;10.13;;;10.13;;
20844;SDS011;10583;49.084;8.646;2024-03-17T08:35:54;10.30;;;10.30;;
20844;SDS011;10583;49.084;8.646;2024-03-17T08:38:22;9.47;;;9.47;;
20844;SDS011;10583;49.084;8.646;2024-03-17T08:40:49;9.60;;;9.60;;
20844;SDS011;10583;49.084;8.646;2024-03-17T08:43:17;9.20;;;9.20;;
20844;SDS011;10583;49.084;8.646;2024-03-17T08:45:44;10.53;;;10.53;;
20844;SDS011;10583;49.084;8.646;2024-03-17T08:48:11;9.80;;;9.80;;
20844;SDS011;10583;49.084;8.646;2024-03-17T08:50:38;9.20;;;9.20;;
20844;SDS011;10583;49.084;8.646;2024-03-17T08:53:05;9.00;;;9.00;;
20844;SDS011;10583;49.084;8.646;2024-03-17T08:55:33;9.23;;;9.23;;
20844;SDS011;10583;49.084;8.646;2024-03-17T08:57:59;9.63;;;9.63;;
20844;SDS011;10583;49.084;8.646;2024-03-17T09:00:27;9.90;;;9.90;;
20844;SDS011;10583;49.084;8.646;2024-03-17T09:02:55;9.20;;;9.20;;
20844;SDS011;10583;49.084;8.646;2024-03-17T09:05:22;10.20;;;10.20;;
20844;SDS011;10583;49.084;8.646;2024-03-17T09:07:49;10.67;;;10.67;;
20844;SDS011;10583;49.084;8.646;2024-03-17T09:10:16;10.50;;;10.50;;
20844;SDS011;10583;49.084;8.646;2024-03-17T09:12:43;10.57;;;10.57;;
20844;SDS011;10583;49.084;8.646;2024-03-17T09:15:12;10.33;;;10.33;;
20844;SDS011;10583;49.084;8.646;2024-03-17T09:17:41;10.10;;;10.10;;
20844;SDS011;10583;49.084;8.646;2024-03-17T09:20:09;10.57;;;10.57;;
20844;SDS011;10583;49.084;8.646;2024-03-17T09:22:39;11.10;;;11.10;;
20844;SDS011;10583;49.084;8.646;2024-03-17T09:25:06;10.57;;;10.57;;
20844;SDS011;10583;49.084;8.646;2024-03-17T09:27:33;9.47;;;9.47;;
20844;SDS011;10583;49.084;8.646;2024-03-17T09:30:01;9.93;;;9.93;;
20844;SDS011;10583;49.084;8.646;2024-03-17T09:32:30;9.83;;;9.83;;
20844;SDS011;10583;49.084;8.646;2024-03-17T09:34:59;9.97;;;9.97;;
20844;SDS011;10583;49.084;8.646;2024-03-17T09:37:25;10.50;;;10.50;;
20844;SDS011;10583;49.084;8.646;2024-03-17T09:39:53;10.73;;;10.73;;
20844;SDS011;10583;49.084;8.646;2024-03-17T09:42:22;10.10;;;10.10;;
20844;SDS011;10583;49.084;8.646;2024-03-17T09:44:49;10.87;;;10.87;;
20844;SDS011;10583;49.084;8.646;2024-03-17T09:47:19;9.63;;;9.63;;
20844;SDS011;10583;49.084;8.646;2024-03-17T09:49:47;9.27;;;9.27;;
20844;SDS011;10583;49.084;8.646;2024-03-17T09:52:18;9.70;;;9.70;;
20844;SDS011;10583;49.084;8.646;2024-03-17T09:54:49;9.57;;;9.57;;
20844;SDS011;10583;49.084;8.646;2024-03-17T09:57:19;9.27;;;9.27;;
20844;SDS011;10583;49.084;8.646;2024-03-17T09:59:50;10.50;;;10.50;;
20844;SDS011;10583;49.084;8.646;2024-03-17T10:02:18;9.43;;;9.43;;
20844;SDS011;10583;49.084;8.646;2024-03-17T10:04:45;9.73;;;9.73;;
20844;SDS011;10583;49.084;8.646;2024-03-17T10:07:12;8.97;;;8.97;;
20844;SDS011;10583;49.084;8.646;2024-03-17T10:09:40;9.20;;;9.20;;
20844;SDS011;10583;49.084;8.646;2024-03-17T10:12:23;8.90;;;8.90;;
20844;SDS011;10583;49.084;8.646;2024-03-17T10:14:58;8.97;;;8.97;;
20844;SDS011;10583;49.084;8.646;2024-03-17T10:17:31;8.97;;;8.97;;
20844;SDS011;10583;49.084;8.646;2024-03-17T10:20:10;9.87;;;9.87;;
20844;SDS011;10583;49.084;8.646;2024-03-17T10:22:38;9.10;;;9.10;;
20844;SDS011;10583;49.084;8.646;2024-03-17T10:25:06;9.83;;;9.83;;
20844;SDS011;10583;49.084;8.646;2024-03-17T10:27:35;8.13;;;8.13;;
20844;SDS011;10583;49.084;8.646;2024-03-17T10:30:13;8.03;;;8.03;;
20844;SDS011;10583;49.084;8.646;2024-03-17T10:32:45;8.23;;;8.23;;
20844;SDS011;10583;49.084;8.646;2024-03-17T10:35:24;7.73;;;7.73;;
20844;SDS011;10583;49.084;8.646;2024-03-17T10:37:56;7.67;;;7.67;;
20844;SDS011;10583;49.084;8.646;2024-03-17T10:40:26;6.57;;;6.57;;
20844;SDS011;10583;49.084;8.646;2024-03-17T10:42:54;6.83;;;6.83;;
20844;SDS011;10583;49.084;8.646;2024-03-17T10:45:22;5.53;;;5.53;;
20844;SDS011;10583;49.084;8.646;2024-03-17T10:47:50;5.90;;;5.90;;
20844;SDS011;10583;49.084;8.646;2024-03-17T10:50:18;6.03;;;6.03;;
20844;SDS011;10583;49.084;8.646;2024-03-17T10:52:46;5.73;;;5.73;;
20844;SDS011;10583;49.084;8.646;2024-03-17T10:55:26;6.30;;;6.30;;
20844;SDS011;10583;49.084;8.646;2024-03-17T10:57:53;6.10;;;6.10;;
20844;SDS011;10583;49.084;8.646;2024-03-17T11:00:23;5.70;;;5.70;;
20844;SDS011;10583;49.084;8.646;2024-03-17T11:02:50;5.73;;;5.73;;
20844;SDS011;10583;49.084;8.646;2024-03-17T11:05:20;5.70;;;5.70;;
20844;SDS011;10583;49.084;8.646;2024-03-17T11:07:50;6.17;;;6.17;;
20844;SDS011;10583;49.084;8.646;2024-03-17T11:10:20;5.40;;;5.40;;
20844;SDS011;10583;49.084;8.646;2024-03-17T11:12:50;6.03;;;6.03;;
20844;SDS011;10583;49.084;8.646;2024-03-17T11:20:56;4.93;;;4.93;;
20844;SDS011;10583;49.084;8.646;2024-03-17T11:23:25;4.90;;;4.90;;
20844;SDS011;10583;49.084;8.646;2024-03-17T11:25:54;4.77;;;4.77;;
20844;SDS011;10583;49.084;8.646;2024-03-17T11:31:32;4.00;;;4.00;;
20844;SDS011;10583;49.084;8.646;2024-03-17T11:36:53;3.20;;;3.20;;
20844;SDS011;10583;49.084;8.646;2024-03-17T11:39:20;3.17;;;3.17;;
20844;SDS011;10583;49.084;8.646;2024-03-17T11:42:06;2.97;;;2.97;;
20844;SDS011;10583;49.084;8.646;2024-03-17T11:44:42;2.73;;;2.73;;
20844;SDS011;10583;49.084;8.646;2024-03-17T11:47:10;3.30;;;3.30;;
20844;SDS011;10583;49.084;8.646;2024-03-17T11:49:37;4.27;;;4.27;;
20844;SDS011;10583;49.084;8.646;2024-03-17T11:52:04;4.40;;;4.40;;
20844;SDS011;10583;49.084;8.646;2024-03-17T11:54:35;4.30;;;4.30;;
20844;SDS011;10583;49.084;8.646;2024-03-17T11:57:02;3.80;;;3.80;;
20844;SDS011;10583;49.084;8.646;2024-03-17T11:59:30;4.23;;;4.23;;
20844;SDS011;10583;49.084;8.646;2024-03-17T12:01:58;4.20;;;4.20;;
20844;SDS011;10583;49.084;8.646;2024-03-17T12:04:26;4.30;;;4.30;;
20844;SDS011;10583;49.084;8.646;2024-03-17T12:06:54;3.87;;;3.87;;
20844;SDS011;10583;49.084;8.646;2024-03-17T12:09:22;4.03;;;4.03;;
20844;SDS011;10583;49.084;8.646;2024-03-17T12:11:50;4.20;;;4.20;;
20844;SDS011;10583;49.084;8.646;2024-03-17T12:14:18;4.30;;;4.30;;
20844;SDS011;10583;49.084;8.646;2024-03-17T12:16:50;4.00;;;4.00;;
20844;SDS011;10583;49.084;8.646;2024-03-17T12:19:20;4.03;;;4.03;;
20844;SDS011;10583;49.084;8.646;2024-03-17T12:21:47;4.20;;;4.20;;
20844;SDS011;10583;49.084;8.646;2024-03-17T12:24:16;3.97;;;3.97;;
20844;SDS011;10583;49.084;8.646;2024-03-17T12:26:43;3.50;;;3.50;;
20844;SDS011;10583;49.084;8.646;2024-03-17T12:29:26;3.80;;;3.80;;
20844;SDS011;10583;49.084;8.646;2024-03-17T12:31:55;3.60;;;3.60;;
20844;SDS011;10583;49.084;8.646;2024-03-17T12:34:26;3.63;;;3.63;;
20844;SDS011;10583;49.084;8.646;2024-03-17T12:36:53;3.30;;;3.30;;
20844;SDS011;10583;49.084;8.646;2024-03-17T12:39:21;3.40;;;3.40;;
20844;SDS011;10583;49.084;8.646;2024-03-17T12:42:03;3.63;;;3.63;;
20844;SDS011;10583;49.084;8.646;2024-03-17T12:44:32;3.70;;;3.70;;
20844;SDS011;10583;49.084;8.646;2024-03-17T12:46:59;3.57;;;3.57;;
20844;SDS011;10583;49.084;8.646;2024-03-17T12:49:28;3.10;;;3.10;;
20844;SDS011;10583;49.084;8.646;2024-03-17T12:51:54;3.90;;;3.90;;
20844;SDS011;10583;49.084;8.646;2024-03-17T12:54:22;3.60;;;3.60;;
20844;SDS011;10583;49.084;8.646;2024-03-17T12:56:49;3.80;;;3.80;;
20844;SDS011;10583;49.084;8.646;2024-03-17T12:59:38;3.53;;;3.53;;
20844;SDS011;10583;49.084;8.646;2024-03-17T13:02:23;3.37;;;3.37;;
20844;SDS011;10583;49.084;8.646;2024-03-17T13:05:07;3.70;;;3.70;;
20844;SDS011;10583;49.084;8.646;2024-03-17T13:07:37;3.10;;;3.10;;
20844;SDS011;10583;49.084;8.646;2024-03-17T13:10:04;3.20;;;3.20;;
20844;SDS011;10583;49.084;8.646;2024-03-17T13:12:33;3.20;;;3.20;;
20844;SDS011;10583;49.084;8.646;2024-03-17T13:14:59;2.90;;;2.90;;
20844;SDS011;10583;49.084;8.646;2024-03-17T13:17:26;3.37;;;3.37;;
20844;SDS011;10583;49.084;8.646;2024-03-17T13:19:54;3.27;;;3.27;;
20844;SDS011;10583;49.084;8.646;2024-03-17T13:22:22;4.27;;;4.27;;
20844;SDS011;10583;49.084;8.646;2024-03-17T13:24:48;3.63;;;3.63;;
20844;SDS011;10583;49.084;8.646;2024-03-17T13:27:16;3.33;;;3.33;;
20844;SDS011;10583;49.084;8.646;2024-03-17T13:29:46;2.97;;;2.97;;
20844;SDS011;10583;49.084;8.646;2024-03-17T13:32:14;3.10;;;3.10;;
20844;SDS011;10583;49.084;8.646;2024-03-17T13:34:42;3.13;;;3.13;;
20844;SDS011;10583;49.084;8.646;2024-03-17T13:37:09;3.30;;;3.30;;
20844;SDS011;10583;49.084;8.646;2024-03-17T13:39:37;3.30;;;3.30;;
20844;SDS011;10583;49.084;8.646;2024-03-17T13:42:04;3.13;;;3.13;;
20844;SDS011;10583;49.084;8.646;2024-03-17T13:44:32;3.40;;;3.40;;
20844;SDS011;10583;49.084;8.646;2024-03-17T13:46:59;3.30;;;3.30;;
20844;SDS011;10583;49.084;8.646;2024-03-17T13:49:28;3.00;;;3.00;;
20844;SDS011;10583;49.084;8.646;2024-03-17T13:51:55;3.43;;;3.43;;
20844;SDS011;10583;49.084;8.646;2024-03-17T13:54:22;2.83;;;2.83;;
20844;SDS011;10583;49.084;8.646;2024-03-17T13:56:50;2.87;;;2.87;;
20844;SDS011;10583;49.084;8.646;2024-03-17T13:59:17;3.30;;;3.30;;
20844;SDS011;10583;49.084;8.646;2024-03-17T14:01:44;3.20;;;3.20;;
20844;SDS011;10583;49.084;8.646;2024-03-17T14:04:12;3.30;;;3.30;;
20844;SDS011;10583;49.084;8.646;2024-03-17T14:06:41;3.23;;;3.23;;
20844;SDS011;10583;49.084;8.646;2024-03-17T14:09:08;3.33;;;3.33;;
20844;SDS011;10583;49.084;8.646;2024-03-17T14:11:35;2.90;;;2.90;;
20844;SDS011;10583;49.084;8.646;2024-03-17T14:14:05;3.20;;;3.20;;
20844;SDS011;10583;49.084;8.646;2024-03-17T14:16:32;3.10;;;3.10;;
20844;SDS011;10583;49.084;8.646;2024-03-17T14:18:59;2.97;;;2.97;;
20844;SDS011;10583;49.084;8.646;2024-03-17T14:21:27;2.70;;;2.70;;
20844;SDS011;10583;49.084;8.646;2024-03-17T14:23:55;2.93;;;2.93;;
20844;SDS011;10583;49.084;8.646;2024-03-17T14:26:22;3.20;;;3.20;;
20844;SDS011;10583;49.084;8.646;2024-03-17T14:28:49;2.93;;;2.93;;
20844;SDS011;10583;49.084;8.646;2024-03-17T14:31:18;2.60;;;2.60;;
20844;SDS011;10583;49.084;8.646;2024-03-17T14:33:44;3.10;;;3.10;;
20844;SDS011;10583;49.084;8.646;2024-03-17T14:36:11;2.83;;;2.83;;
20844;SDS011;10583;49.084;8.646;2024-03-17T14:38:38;2.80;;;2.80;;
20844;SDS011;10583;49.084;8.646;2024-03-17T14:41:04;2.80;;;2.80;;
20844;SDS011;10583;49.084;8.646;2024-03-17T14:43:31;2.50;;;2.50;;
20844;SDS011;10583;49.084;8.646;2024-03-17T14:46:03;2.63;;;2.63;;
20844;SDS011;10583;49.084;8.646;2024-03-17T14:48:31;2.33;;;2.33;;
20844;SDS011;10583;49.084;8.646;2024-03-17T14:50:59;2.90;;;2.90;;
20844;SDS011;10583;49.084;8.646;2024-03-17T14:53:25;2.90;;;2.90;;
20844;SDS011;10583;49.084;8.646;2024-03-17T14:55:52;2.80;;;2.80;;
20844;SDS011;10583;49.084;8.646;2024-03-17T14:58:19;2.60;;;2.60;;
20844;SDS011;10583;49.084;8.646;2024-03-17T15:00:46;2.40;;;2.40;;